sensor_id;sensor_type;location;lat;lon;timestamp;P1;durP1;ratioP1;P2;durP2;ratioP2
55539;SDS011;41384;51.418;7.286;2023-05-19T00:01:33;5.22;;;2.88;;
55539;SDS011;41384;51.418;7.286;2023-05-19T00:04:01;7.57;;;3.35;;
55539;SDS011;41384;51.418;7.286;2023-05-19T00:06:29;7.20;;;3.15;;
55539;SDS011;41384;51.418;7.286;2023-05-19T00:09:05;7.35;;;3.60;;
55539;SDS011;41384;51.418;7.286;2023-05-19T00:11:33;6.53;;;2.92;;
55539;SDS011;41384;51.418;7.286;2023-05-19T00:14:00;9.43;;;3.30;;
55539;SDS011;41384;51.418;7.286;2023-05-19T00:16:26;8.30;;;3.10;;
55539;SDS011;41384;51.418;7.286;2023-05-19T00:18:52;7.82;;;2.97;;
55539;SDS011;41384;51.418;7.286;2023-05-19T00:21:18;7.85;;;3.00;;
55539;SDS011;41384;51.418;7.286;2023-05-19T00:23:44;8.07;;;3.05;;
55539;SDS011;41384;51.418;7.286;2023-05-19T00:26:10;6.50;;;2.90;;
55539;SDS011;41384;51.418;7.286;2023-05-19T00:28:35;5.28;;;2.97;;
55539;SDS011;41384;51.418;7.286;2023-05-19T00:31:01;5.47;;;2.65;;
55539;SDS011;41384;51.418;7.286;2023-05-19T00:33:28;5.57;;;2.58;;
55539;SDS011;41384;51.418;7.286;2023-05-19T00:35:54;8.25;;;2.53;;
55539;SDS011;41384;51.418;7.286;2023-05-19T00:38:19;9.82;;;3.05;;
55539;SDS011;41384;51.418;7.286;2023-05-19T00:40:44;7.53;;;3.20;;
55539;SDS011;41384;51.418;7.286;2023-05-19T00:43:10;8.65;;;3.45;;
55539;SDS011;41384;51.418;7.286;2023-05-19T00:45:35;10.60;;;3.58;;
55539;SDS011;41384;51.418;7.286;2023-05-19T00:48:00;8.65;;;3.70;;
55539;SDS011;41384;51.418;7.286;2023-05-19T00:50:26;10.15;;;3.50;;
55539;SDS011;41384;51.418;7.286;2023-05-19T00:52:52;6.68;;;3.20;;
55539;SDS011;41384;51.418;7.286;2023-05-19T00:55:19;11.73;;;3.58;;
55539;SDS011;41384;51.418;7.286;2023-05-19T00:57:46;5.53;;;2.88;;
55539;SDS011;41384;51.418;7.286;2023-05-19T01:00:13;11.35;;;3.05;;
55539;SDS011;41384;51.418;7.286;2023-05-19T01:02:39;6.10;;;3.00;;
55539;SDS011;41384;51.418;7.286;2023-05-19T01:05:05;5.03;;;2.95;;
55539;SDS011;41384;51.418;7.286;2023-05-19T01:07:30;6.20;;;2.90;;
55539;SDS011;41384;51.418;7.286;2023-05-19T01:09:56;7.65;;;3.22;;
55539;SDS011;41384;51.418;7.286;2023-05-19T01:12:22;8.27;;;3.10;;
55539;SDS011;41384;51.418;7.286;2023-05-19T01:14:47;7.95;;;3.22;;
55539;SDS011;41384;51.418;7.286;2023-05-19T01:19:56;11.02;;;3.72;;
55539;SDS011;41384;51.418;7.286;2023-05-19T01:27:55;8.15;;;3.45;;
55539;SDS011;41384;51.418;7.286;2023-05-19T01:30:29;8.43;;;3.50;;
55539;SDS011;41384;51.418;7.286;2023-05-19T01:33:01;9.95;;;3.38;;
55539;SDS011;41384;51.418;7.286;2023-05-19T01:35:28;7.55;;;4.07;;
55539;SDS011;41384;51.418;7.286;2023-05-19T01:37:56;8.07;;;4.30;;
55539;SDS011;41384;51.418;7.286;2023-05-19T01:40:24;6.57;;;4.00;;
55539;SDS011;41384;51.418;7.286;2023-05-19T01:42:51;8.27;;;3.97;;
55539;SDS011;41384;51.418;7.286;2023-05-19T01:45:19;5.65;;;3.80;;
55539;SDS011;41384;51.418;7.286;2023-05-19T01:47:45;9.70;;;3.67;;
55539;SDS011;41384;51.418;7.286;2023-05-19T01:50:13;7.43;;;3.85;;
55539;SDS011;41384;51.418;7.286;2023-05-19T01:52:39;9.40;;;4.22;;
55539;SDS011;41384;51.418;7.286;2023-05-19T01:55:04;6.07;;;3.22;;
55539;SDS011;41384;51.418;7.286;2023-05-19T02:00:23;9.32;;;4.15;;
55539;SDS011;41384;51.418;7.286;2023-05-19T02:10:49;7.93;;;4.22;;
55539;SDS011;41384;51.418;7.286;2023-05-19T02:13:20;9.45;;;4.40;;
55539;SDS011;41384;51.418;7.286;2023-05-19T02:15:50;8.73;;;4.22;;
55539;SDS011;41384;51.418;7.286;2023-05-19T02:18:18;9.68;;;4.70;;
55539;SDS011;41384;51.418;7.286;2023-05-19T02:20:44;9.85;;;4.53;;
55539;SDS011;41384;51.418;7.286;2023-05-19T02:23:09;7.13;;;4.57;;
55539;SDS011;41384;51.418;7.286;2023-05-19T02:25:34;8.18;;;4.38;;
55539;SDS011;41384;51.418;7.286;2023-05-19T02:28:00;7.22;;;4.30;;
55539;SDS011;41384;51.418;7.286;2023-05-19T02:30:25;12.55;;;4.82;;
55539;SDS011;41384;51.418;7.286;2023-05-19T02:32:50;9.85;;;4.38;;
55539;SDS011;41384;51.418;7.286;2023-05-19T02:35:21;9.60;;;4.85;;
55539;SDS011;41384;51.418;7.286;2023-05-19T02:37:46;8.73;;;4.40;;
55539;SDS011;41384;51.418;7.286;2023-05-19T02:40:11;9.40;;;4.82;;
55539;SDS011;41384;51.418;7.286;2023-05-19T02:42:37;11.75;;;4.93;;
55539;SDS011;41384;51.418;7.286;2023-05-19T02:45:04;7.75;;;4.38;;
55539;SDS011;41384;51.418;7.286;2023-05-19T02:47:30;7.57;;;4.28;;
55539;SDS011;41384;51.418;7.286;2023-05-19T02:49:55;7.35;;;4.47;;
55539;SDS011;41384;51.418;7.286;2023-05-19T02:52:20;9.95;;;4.95;;
55539;SDS011;41384;51.418;7.286;2023-05-19T02:54:46;7.10;;;4.30;;
55539;SDS011;41384;51.418;7.286;2023-05-19T02:57:11;7.35;;;4.20;;
55539;SDS011;41384;51.418;7.286;2023-05-19T02:59:36;8.50;;;4.38;;
55539;SDS011;41384;51.418;7.286;2023-05-19T03:02:02;6.90;;;3.92;;
55539;SDS011;41384;51.418;7.286;2023-05-19T03:04:27;7.00;;;4.28;;
55539;SDS011;41384;51.418;7.286;2023-05-19T03:06:55;7.00;;;4.90;;
55539;SDS011;41384;51.418;7.286;2023-05-19T03:09:21;10.02;;;4.63;;
55539;SDS011;41384;51.418;7.286;2023-05-19T03:11:46;9.50;;;4.97;;
55539;SDS011;41384;51.418;7.286;2023-05-19T03:14:12;7.57;;;4.22;;
55539;SDS011;41384;51.418;7.286;2023-05-19T03:16:40;9.73;;;4.82;;
55539;SDS011;41384;51.418;7.286;2023-05-19T03:19:06;9.38;;;4.78;;
55539;SDS011;41384;51.418;7.286;2023-05-19T03:21:31;7.22;;;4.60;;
55539;SDS011;41384;51.418;7.286;2023-05-19T03:23:58;7.57;;;4.82;;
55539;SDS011;41384;51.418;7.286;2023-05-19T03:26:24;7.25;;;4.80;;
55539;SDS011;41384;51.418;7.286;2023-05-19T03:28:49;8.75;;;4.95;;
55539;SDS011;41384;51.418;7.286;2023-05-19T03:31:14;7.78;;;5.00;;
55539;SDS011;41384;51.418;7.286;2023-05-19T03:33:40;10.30;;;5.82;;
55539;SDS011;41384;51.418;7.286;2023-05-19T03:36:05;8.82;;;5.32;;
55539;SDS011;41384;51.418;7.286;2023-05-19T03:38:31;8.75;;;5.32;;
55539;SDS011;41384;51.418;7.286;2023-05-19T03:40:56;8.50;;;5.30;;
55539;SDS011;41384;51.418;7.286;2023-05-19T03:43:22;10.20;;;5.90;;
55539;SDS011;41384;51.418;7.286;2023-05-19T03:45:47;9.45;;;5.15;;
55539;SDS011;41384;51.418;7.286;2023-05-19T03:48:12;8.20;;;4.85;;
55539;SDS011;41384;51.418;7.286;2023-05-19T03:50:39;9.02;;;5.03;;
55539;SDS011;41384;51.418;7.286;2023-05-19T03:53:05;8.38;;;4.90;;
55539;SDS011;41384;51.418;7.286;2023-05-19T03:55:30;9.75;;;5.47;;
55539;SDS011;41384;51.418;7.286;2023-05-19T03:57:56;9.95;;;4.70;;
55539;SDS011;41384;51.418;7.286;2023-05-19T04:00:21;11.68;;;4.82;;
55539;SDS011;41384;51.418;7.286;2023-05-19T04:02:46;8.77;;;4.95;;
55539;SDS011;41384;51.418;7.286;2023-05-19T04:05:12;11.25;;;5.50;;
55539;SDS011;41384;51.418;7.286;2023-05-19T04:07:38;6.90;;;4.80;;
55539;SDS011;41384;51.418;7.286;2023-05-19T04:10:03;10.25;;;5.07;;
55539;SDS011;41384;51.418;7.286;2023-05-19T04:12:29;8.77;;;5.20;;
55539;SDS011;41384;51.418;7.286;2023-05-19T04:14:54;8.65;;;5.00;;
55539;SDS011;41384;51.418;7.286;2023-05-19T04:17:19;10.07;;;4.97;;
55539;SDS011;41384;51.418;7.286;2023-05-19T04:19:47;7.80;;;5.22;;
55539;SDS011;41384;51.418;7.286;2023-05-19T04:22:12;7.38;;;5.15;;
55539;SDS011;41384;51.418;7.286;2023-05-19T04:24:38;10.45;;;4.90;;
55539;SDS011;41384;51.418;7.286;2023-05-19T04:27:03;9.38;;;5.07;;
55539;SDS011;41384;51.418;7.286;2023-05-19T04:29:29;9.73;;;4.80;;
55539;SDS011;41384;51.418;7.286;2023-05-19T04:31:54;9.80;;;5.65;;
55539;SDS011;41384;51.418;7.286;2023-05-19T04:34:21;11.68;;;4.88;;
55539;SDS011;41384;51.418;7.286;2023-05-19T04:36:46;6.78;;;5.10;;
55539;SDS011;41384;51.418;7.286;2023-05-19T04:39:12;10.27;;;5.55;;
55539;SDS011;41384;51.418;7.286;2023-05-19T04:41:38;12.77;;;5.38;;
55539;SDS011;41384;51.418;7.286;2023-05-19T04:44:04;10.15;;;5.28;;
55539;SDS011;41384;51.418;7.286;2023-05-19T04:46:31;9.25;;;4.97;;
55539;SDS011;41384;51.418;7.286;2023-05-19T04:48:57;10.55;;;5.10;;
55539;SDS011;41384;51.418;7.286;2023-05-19T04:51:25;8.35;;;4.82;;
55539;SDS011;41384;51.418;7.286;2023-05-19T04:53:52;7.60;;;4.68;;
55539;SDS011;41384;51.418;7.286;2023-05-19T04:56:20;9.98;;;4.85;;
55539;SDS011;41384;51.418;7.286;2023-05-19T04:58:46;11.50;;;4.78;;
55539;SDS011;41384;51.418;7.286;2023-05-19T05:01:12;12.73;;;5.60;;
55539;SDS011;41384;51.418;7.286;2023-05-19T05:03:37;10.70;;;5.20;;
55539;SDS011;41384;51.418;7.286;2023-05-19T05:06:03;16.13;;;6.07;;
55539;SDS011;41384;51.418;7.286;2023-05-19T05:08:28;11.10;;;6.28;;
55539;SDS011;41384;51.418;7.286;2023-05-19T05:10:54;15.13;;;6.93;;
55539;SDS011;41384;51.418;7.286;2023-05-19T05:13:20;12.85;;;6.88;;
55539;SDS011;41384;51.418;7.286;2023-05-19T05:15:47;16.52;;;6.90;;
55539;SDS011;41384;51.418;7.286;2023-05-19T05:18:13;16.00;;;6.90;;
55539;SDS011;41384;51.418;7.286;2023-05-19T05:20:39;9.75;;;6.78;;
55539;SDS011;41384;51.418;7.286;2023-05-19T05:23:06;10.43;;;6.22;;
55539;SDS011;41384;51.418;7.286;2023-05-19T05:25:33;11.95;;;6.00;;
55539;SDS011;41384;51.418;7.286;2023-05-19T05:27:59;11.68;;;6.43;;
55539;SDS011;41384;51.418;7.286;2023-05-19T05:30:28;9.00;;;5.43;;
55539;SDS011;41384;51.418;7.286;2023-05-19T05:32:54;8.77;;;5.63;;
55539;SDS011;41384;51.418;7.286;2023-05-19T05:35:19;9.52;;;5.25;;
55539;SDS011;41384;51.418;7.286;2023-05-19T05:37:47;9.32;;;4.82;;
55539;SDS011;41384;51.418;7.286;2023-05-19T05:40:12;10.68;;;5.13;;
55539;SDS011;41384;51.418;7.286;2023-05-19T05:42:38;9.05;;;4.70;;
55539;SDS011;41384;51.418;7.286;2023-05-19T05:45:03;7.22;;;4.65;;
55539;SDS011;41384;51.418;7.286;2023-05-19T05:47:29;11.60;;;5.50;;
55539;SDS011;41384;51.418;7.286;2023-05-19T05:49:54;7.07;;;4.88;;
55539;SDS011;41384;51.418;7.286;2023-05-19T05:52:20;8.93;;;5.28;;
55539;SDS011;41384;51.418;7.286;2023-05-19T05:54:47;11.35;;;5.07;;
55539;SDS011;41384;51.418;7.286;2023-05-19T05:57:12;10.88;;;4.88;;
55539;SDS011;41384;51.418;7.286;2023-05-19T05:59:38;13.05;;;5.38;;
55539;SDS011;41384;51.418;7.286;2023-05-19T06:02:09;10.88;;;5.32;;
55539;SDS011;41384;51.418;7.286;2023-05-19T06:04:34;11.70;;;5.43;;
55539;SDS011;41384;51.418;7.286;2023-05-19T06:06:59;11.93;;;5.28;;
55539;SDS011;41384;51.418;7.286;2023-05-19T06:09:25;12.73;;;5.22;;
55539;SDS011;41384;51.418;7.286;2023-05-19T06:11:51;8.02;;;4.70;;
55539;SDS011;41384;51.418;7.286;2023-05-19T06:14:16;10.55;;;4.80;;
55539;SDS011;41384;51.418;7.286;2023-05-19T06:16:42;9.23;;;4.95;;
55539;SDS011;41384;51.418;7.286;2023-05-19T06:19:07;7.65;;;4.88;;
55539;SDS011;41384;51.418;7.286;2023-05-19T06:21:33;10.65;;;5.13;;
55539;SDS011;41384;51.418;7.286;2023-05-19T06:23:58;10.52;;;4.82;;
55539;SDS011;41384;51.418;7.286;2023-05-19T06:26:24;11.40;;;5.22;;
55539;SDS011;41384;51.418;7.286;2023-05-19T06:28:50;11.77;;;4.70;;
55539;SDS011;41384;51.418;7.286;2023-05-19T06:31:16;9.77;;;4.82;;
55539;SDS011;41384;51.418;7.286;2023-05-19T06:33:41;8.95;;;4.53;;
55539;SDS011;41384;51.418;7.286;2023-05-19T06:36:06;9.27;;;4.45;;
55539;SDS011;41384;51.418;7.286;2023-05-19T06:38:33;9.50;;;4.18;;
55539;SDS011;41384;51.418;7.286;2023-05-19T06:40:59;6.25;;;3.83;;
55539;SDS011;41384;51.418;7.286;2023-05-19T06:43:24;8.18;;;4.00;;
55539;SDS011;41384;51.418;7.286;2023-05-19T06:45:49;13.18;;;4.30;;
55539;SDS011;41384;51.418;7.286;2023-05-19T06:48:15;10.38;;;4.07;;
55539;SDS011;41384;51.418;7.286;2023-05-19T06:50:40;11.15;;;5.47;;
55539;SDS011;41384;51.418;7.286;2023-05-19T06:53:05;10.68;;;4.25;;
55539;SDS011;41384;51.418;7.286;2023-05-19T06:55:30;7.95;;;4.18;;
55539;SDS011;41384;51.418;7.286;2023-05-19T06:57:56;9.48;;;4.28;;
55539;SDS011;41384;51.418;7.286;2023-05-19T07:00:21;7.78;;;4.80;;
55539;SDS011;41384;51.418;7.286;2023-05-19T07:02:46;7.85;;;4.22;;
55539;SDS011;41384;51.418;7.286;2023-05-19T07:05:12;11.73;;;4.25;;
55539;SDS011;41384;51.418;7.286;2023-05-19T07:07:37;9.20;;;3.88;;
55539;SDS011;41384;51.418;7.286;2023-05-19T07:10:02;7.00;;;3.40;;
55539;SDS011;41384;51.418;7.286;2023-05-19T07:12:27;7.40;;;3.20;;
55539;SDS011;41384;51.418;7.286;2023-05-19T07:14:53;7.97;;;3.28;;
55539;SDS011;41384;51.418;7.286;2023-05-19T07:17:18;6.50;;;3.28;;
55539;SDS011;41384;51.418;7.286;2023-05-19T07:19:43;7.82;;;3.53;;
55539;SDS011;41384;51.418;7.286;2023-05-19T07:22:09;6.40;;;2.70;;
55539;SDS011;41384;51.418;7.286;2023-05-19T07:24:34;8.38;;;3.35;;
55539;SDS011;41384;51.418;7.286;2023-05-19T07:26:59;7.40;;;2.80;;
55539;SDS011;41384;51.418;7.286;2023-05-19T07:29:25;6.85;;;2.58;;
55539;SDS011;41384;51.418;7.286;2023-05-19T07:31:50;7.18;;;2.75;;
55539;SDS011;41384;51.418;7.286;2023-05-19T07:34:18;6.40;;;2.63;;
55539;SDS011;41384;51.418;7.286;2023-05-19T07:36:44;5.45;;;2.50;;
55539;SDS011;41384;51.418;7.286;2023-05-19T07:39:09;5.63;;;2.65;;
55539;SDS011;41384;51.418;7.286;2023-05-19T07:41:35;7.68;;;2.55;;
55539;SDS011;41384;51.418;7.286;2023-05-19T07:44:00;3.92;;;2.20;;
55539;SDS011;41384;51.418;7.286;2023-05-19T07:46:25;7.18;;;2.80;;
55539;SDS011;41384;51.418;7.286;2023-05-19T07:48:50;7.63;;;2.50;;
55539;SDS011;41384;51.418;7.286;2023-05-19T07:51:16;6.97;;;2.50;;
55539;SDS011;41384;51.418;7.286;2023-05-19T07:53:41;6.25;;;2.50;;
55539;SDS011;41384;51.418;7.286;2023-05-19T07:56:06;4.43;;;2.08;;
55539;SDS011;41384;51.418;7.286;2023-05-19T07:58:31;4.28;;;2.10;;
55539;SDS011;41384;51.418;7.286;2023-05-19T08:00:57;6.72;;;2.40;;
55539;SDS011;41384;51.418;7.286;2023-05-19T08:03:23;4.85;;;2.17;;
55539;SDS011;41384;51.418;7.286;2023-05-19T08:05:49;5.82;;;2.03;;
55539;SDS011;41384;51.418;7.286;2023-05-19T08:08:14;3.33;;;2.00;;
55539;SDS011;41384;51.418;7.286;2023-05-19T08:10:43;3.90;;;1.75;;
55539;SDS011;41384;51.418;7.286;2023-05-19T08:13:09;6.60;;;2.10;;
55539;SDS011;41384;51.418;7.286;2023-05-19T08:15:34;3.45;;;2.28;;
55539;SDS011;41384;51.418;7.286;2023-05-19T08:17:59;5.20;;;2.55;;
55539;SDS011;41384;51.418;7.286;2023-05-19T08:20:25;5.00;;;2.03;;
55539;SDS011;41384;51.418;7.286;2023-05-19T08:22:50;6.68;;;2.95;;
55539;SDS011;41384;51.418;7.286;2023-05-19T08:25:16;5.72;;;1.77;;
55539;SDS011;41384;51.418;7.286;2023-05-19T08:27:41;8.65;;;2.05;;
55539;SDS011;41384;51.418;7.286;2023-05-19T08:30:06;6.25;;;1.88;;
55539;SDS011;41384;51.418;7.286;2023-05-19T08:32:32;7.10;;;1.92;;
55539;SDS011;41384;51.418;7.286;2023-05-19T08:34:57;7.78;;;1.80;;
55539;SDS011;41384;51.418;7.286;2023-05-19T08:37:23;4.03;;;1.90;;
55539;SDS011;41384;51.418;7.286;2023-05-19T08:39:48;7.00;;;2.17;;
55539;SDS011;41384;51.418;7.286;2023-05-19T08:42:13;5.90;;;1.88;;
55539;SDS011;41384;51.418;7.286;2023-05-19T08:44:38;4.03;;;1.67;;
55539;SDS011;41384;51.418;7.286;2023-05-19T08:47:06;5.45;;;1.98;;
55539;SDS011;41384;51.418;7.286;2023-05-19T08:49:39;3.55;;;1.60;;
55539;SDS011;41384;51.418;7.286;2023-05-19T08:52:26;5.07;;;1.80;;
55539;SDS011;41384;51.418;7.286;2023-05-19T08:55:08;4.88;;;1.70;;
55539;SDS011;41384;51.418;7.286;2023-05-19T08:57:37;6.60;;;1.65;;
55539;SDS011;41384;51.418;7.286;2023-05-19T09:00:03;5.97;;;1.70;;
55539;SDS011;41384;51.418;7.286;2023-05-19T09:02:33;4.60;;;1.55;;
55539;SDS011;41384;51.418;7.286;2023-05-19T09:05:01;4.15;;;1.40;;
55539;SDS011;41384;51.418;7.286;2023-05-19T09:07:28;3.28;;;1.13;;
55539;SDS011;41384;51.418;7.286;2023-05-19T09:09:58;5.25;;;1.40;;
55539;SDS011;41384;51.418;7.286;2023-05-19T09:12:24;7.40;;;1.70;;
55539;SDS011;41384;51.418;7.286;2023-05-19T09:14:50;5.25;;;1.65;;
55539;SDS011;41384;51.418;7.286;2023-05-19T09:17:15;5.45;;;1.55;;
55539;SDS011;41384;51.418;7.286;2023-05-19T09:19:43;4.60;;;1.20;;
55539;SDS011;41384;51.418;7.286;2023-05-19T09:22:08;4.85;;;1.75;;
55539;SDS011;41384;51.418;7.286;2023-05-19T09:24:34;2.53;;;1.20;;
55539;SDS011;41384;51.418;7.286;2023-05-19T09:27:00;4.30;;;1.33;;
55539;SDS011;41384;51.418;7.286;2023-05-19T09:29:26;3.88;;;1.50;;
55539;SDS011;41384;51.418;7.286;2023-05-19T09:31:54;3.88;;;1.30;;
55539;SDS011;41384;51.418;7.286;2023-05-19T09:34:24;3.85;;;1.13;;
55539;SDS011;41384;51.418;7.286;2023-05-19T09:36:50;3.42;;;1.30;;
55539;SDS011;41384;51.418;7.286;2023-05-19T09:39:20;6.90;;;1.50;;
55539;SDS011;41384;51.418;7.286;2023-05-19T09:41:50;2.70;;;1.08;;
55539;SDS011;41384;51.418;7.286;2023-05-19T09:44:20;5.88;;;1.50;;
55539;SDS011;41384;51.418;7.286;2023-05-19T09:46:47;2.92;;;1.20;;
55539;SDS011;41384;51.418;7.286;2023-05-19T09:49:19;4.30;;;1.20;;
55539;SDS011;41384;51.418;7.286;2023-05-19T09:51:48;4.13;;;1.75;;
55539;SDS011;41384;51.418;7.286;2023-05-19T09:54:20;3.65;;;1.35;;
55539;SDS011;41384;51.418;7.286;2023-05-19T09:56:50;3.22;;;1.30;;
55539;SDS011;41384;51.418;7.286;2023-05-19T09:59:25;5.10;;;1.40;;
55539;SDS011;41384;51.418;7.286;2023-05-19T10:01:52;2.20;;;0.98;;
55539;SDS011;41384;51.418;7.286;2023-05-19T10:04:19;3.50;;;1.38;;
55539;SDS011;41384;51.418;7.286;2023-05-19T10:06:45;2.92;;;1.10;;
55539;SDS011;41384;51.418;7.286;2023-05-19T10:09:11;2.88;;;1.08;;
55539;SDS011;41384;51.418;7.286;2023-05-19T10:11:37;3.78;;;1.20;;
55539;SDS011;41384;51.418;7.286;2023-05-19T10:14:03;4.30;;;0.80;;
55539;SDS011;41384;51.418;7.286;2023-05-19T10:16:29;7.40;;;1.50;;
55539;SDS011;41384;51.418;7.286;2023-05-19T10:18:55;5.20;;;1.30;;
55539;SDS011;41384;51.418;7.286;2023-05-19T10:21:23;3.33;;;1.30;;
55539;SDS011;41384;51.418;7.286;2023-05-19T10:23:48;3.55;;;1.25;;
55539;SDS011;41384;51.418;7.286;2023-05-19T10:26:15;4.00;;;1.98;;
55539;SDS011;41384;51.418;7.286;2023-05-19T10:28:41;5.50;;;1.48;;
55539;SDS011;41384;51.418;7.286;2023-05-19T10:31:10;4.82;;;1.70;;
55539;SDS011;41384;51.418;7.286;2023-05-19T10:33:45;7.82;;;1.45;;
55539;SDS011;41384;51.418;7.286;2023-05-19T10:39:28;3.75;;;1.17;;
55539;SDS011;41384;51.418;7.286;2023-05-19T10:42:15;5.60;;;1.10;;
55539;SDS011;41384;51.418;7.286;2023-05-19T10:47:39;10.45;;;1.83;;
55539;SDS011;41384;51.418;7.286;2023-05-19T10:50:05;4.22;;;1.10;;
55539;SDS011;41384;51.418;7.286;2023-05-19T10:52:32;3.40;;;1.40;;
55539;SDS011;41384;51.418;7.286;2023-05-19T10:55:01;4.05;;;1.20;;
55539;SDS011;41384;51.418;7.286;2023-05-19T10:57:26;5.10;;;1.40;;
55539;SDS011;41384;51.418;7.286;2023-05-19T10:59:52;2.10;;;1.10;;
55539;SDS011;41384;51.418;7.286;2023-05-19T11:02:35;5.97;;;1.52;;
55539;SDS011;41384;51.418;7.286;2023-05-19T11:05:07;5.18;;;1.25;;
55539;SDS011;41384;51.418;7.286;2023-05-19T11:07:41;4.60;;;1.48;;
55539;SDS011;41384;51.418;7.286;2023-05-19T11:12:56;4.43;;;1.27;;
55539;SDS011;41384;51.418;7.286;2023-05-19T11:15:25;3.90;;;1.40;;
55539;SDS011;41384;51.418;7.286;2023-05-19T11:17:51;7.22;;;1.40;;
55539;SDS011;41384;51.418;7.286;2023-05-19T11:20:21;4.00;;;1.60;;
55539;SDS011;41384;51.418;7.286;2023-05-19T11:23:04;6.05;;;1.67;;
55539;SDS011;41384;51.418;7.286;2023-05-19T11:28:12;3.88;;;1.40;;
55539;SDS011;41384;51.418;7.286;2023-05-19T11:30:40;5.40;;;1.67;;
55539;SDS011;41384;51.418;7.286;2023-05-19T11:33:07;2.53;;;1.20;;
55539;SDS011;41384;51.418;7.286;2023-05-19T11:35:33;7.50;;;1.50;;
55539;SDS011;41384;51.418;7.286;2023-05-19T11:37:59;5.97;;;1.83;;
55539;SDS011;41384;51.418;7.286;2023-05-19T11:40:25;3.80;;;1.60;;
55539;SDS011;41384;51.418;7.286;2023-05-19T11:42:51;4.28;;;1.10;;
55539;SDS011;41384;51.418;7.286;2023-05-19T11:45:16;4.00;;;1.08;;
55539;SDS011;41384;51.418;7.286;2023-05-19T11:47:44;2.97;;;1.27;;
55539;SDS011;41384;51.418;7.286;2023-05-19T11:50:10;3.22;;;1.17;;
55539;SDS011;41384;51.418;7.286;2023-05-19T11:52:36;2.55;;;1.10;;
55539;SDS011;41384;51.418;7.286;2023-05-19T11:55:02;7.85;;;1.60;;
55539;SDS011;41384;51.418;7.286;2023-05-19T11:57:27;2.90;;;1.23;;
55539;SDS011;41384;51.418;7.286;2023-05-19T11:59:52;4.75;;;1.90;;
55539;SDS011;41384;51.418;7.286;2023-05-19T12:02:21;4.22;;;1.73;;
55539;SDS011;41384;51.418;7.286;2023-05-19T12:04:48;6.43;;;2.08;;
55539;SDS011;41384;51.418;7.286;2023-05-19T12:07:15;3.88;;;1.27;;
55539;SDS011;41384;51.418;7.286;2023-05-19T12:09:42;2.80;;;1.40;;
55539;SDS011;41384;51.418;7.286;2023-05-19T12:12:11;3.25;;;1.30;;
55539;SDS011;41384;51.418;7.286;2023-05-19T12:14:38;3.33;;;1.10;;
55539;SDS011;41384;51.418;7.286;2023-05-19T12:17:12;5.05;;;1.02;;
55539;SDS011;41384;51.418;7.286;2023-05-19T12:19:39;4.60;;;1.27;;
55539;SDS011;41384;51.418;7.286;2023-05-19T12:22:06;2.88;;;1.23;;
55539;SDS011;41384;51.418;7.286;2023-05-19T12:24:33;2.92;;;1.17;;
55539;SDS011;41384;51.418;7.286;2023-05-19T12:27:04;6.90;;;1.25;;
55539;SDS011;41384;51.418;7.286;2023-05-19T12:29:38;3.78;;;1.17;;
55539;SDS011;41384;51.418;7.286;2023-05-19T12:32:04;3.75;;;1.25;;
55539;SDS011;41384;51.418;7.286;2023-05-19T12:34:33;6.45;;;1.30;;
55539;SDS011;41384;51.418;7.286;2023-05-19T12:37:00;2.78;;;1.20;;
55539;SDS011;41384;51.418;7.286;2023-05-19T12:39:26;3.17;;;1.02;;
55539;SDS011;41384;51.418;7.286;2023-05-19T12:41:52;4.53;;;1.10;;
55539;SDS011;41384;51.418;7.286;2023-05-19T12:44:25;4.10;;;1.17;;
55539;SDS011;41384;51.418;7.286;2023-05-19T12:46:51;4.97;;;1.50;;
55539;SDS011;41384;51.418;7.286;2023-05-19T12:49:17;2.78;;;1.08;;
55539;SDS011;41384;51.418;7.286;2023-05-19T12:51:42;4.43;;;1.27;;
55539;SDS011;41384;51.418;7.286;2023-05-19T12:54:21;18.60;;;2.20;;
55539;SDS011;41384;51.418;7.286;2023-05-19T12:56:50;6.22;;;1.40;;
55539;SDS011;41384;51.418;7.286;2023-05-19T12:59:22;1.83;;;0.93;;
55539;SDS011;41384;51.418;7.286;2023-05-19T13:01:55;4.97;;;1.30;;
55539;SDS011;41384;51.418;7.286;2023-05-19T13:06:47;4.28;;;1.10;;
55539;SDS011;41384;51.418;7.286;2023-05-19T13:09:13;3.92;;;1.30;;
55539;SDS011;41384;51.418;7.286;2023-05-19T13:11:39;2.95;;;1.10;;
55539;SDS011;41384;51.418;7.286;2023-05-19T13:14:04;3.20;;;1.30;;
55539;SDS011;41384;51.418;7.286;2023-05-19T13:16:29;4.03;;;1.00;;
55539;SDS011;41384;51.418;7.286;2023-05-19T13:18:55;5.35;;;1.00;;
55539;SDS011;41384;51.418;7.286;2023-05-19T13:21:20;2.38;;;1.08;;
55539;SDS011;41384;51.418;7.286;2023-05-19T13:23:46;4.05;;;1.20;;
55539;SDS011;41384;51.418;7.286;2023-05-19T13:26:11;1.77;;;1.17;;
55539;SDS011;41384;51.418;7.286;2023-05-19T13:28:37;6.63;;;1.30;;
55539;SDS011;41384;51.418;7.286;2023-05-19T13:31:02;2.78;;;1.10;;
55539;SDS011;41384;51.418;7.286;2023-05-19T13:33:27;2.80;;;0.95;;
55539;SDS011;41384;51.418;7.286;2023-05-19T13:35:53;2.65;;;0.80;;
55539;SDS011;41384;51.418;7.286;2023-05-19T13:38:18;3.17;;;1.10;;
55539;SDS011;41384;51.418;7.286;2023-05-19T13:40:43;4.18;;;1.45;;
55539;SDS011;41384;51.418;7.286;2023-05-19T13:43:09;3.17;;;1.40;;
55539;SDS011;41384;51.418;7.286;2023-05-19T13:45:34;2.92;;;1.20;;
55539;SDS011;41384;51.418;7.286;2023-05-19T13:48:00;3.20;;;1.05;;
55539;SDS011;41384;51.418;7.286;2023-05-19T13:50:25;2.35;;;1.00;;
55539;SDS011;41384;51.418;7.286;2023-05-19T13:52:50;6.07;;;1.13;;
55539;SDS011;41384;51.418;7.286;2023-05-19T13:55:16;2.63;;;1.08;;
55539;SDS011;41384;51.418;7.286;2023-05-19T13:57:41;8.40;;;1.30;;
55539;SDS011;41384;51.418;7.286;2023-05-19T14:00:06;4.32;;;1.52;;
55539;SDS011;41384;51.418;7.286;2023-05-19T14:02:34;3.15;;;1.10;;
55539;SDS011;41384;51.418;7.286;2023-05-19T14:05:00;13.23;;;1.38;;
55539;SDS011;41384;51.418;7.286;2023-05-19T14:07:25;3.92;;;1.15;;
55539;SDS011;41384;51.418;7.286;2023-05-19T14:09:52;2.17;;;0.90;;
55539;SDS011;41384;51.418;7.286;2023-05-19T14:12:17;7.70;;;1.65;;
55539;SDS011;41384;51.418;7.286;2023-05-19T14:14:42;2.85;;;1.13;;
55539;SDS011;41384;51.418;7.286;2023-05-19T14:17:08;3.80;;;1.13;;
55539;SDS011;41384;51.418;7.286;2023-05-19T14:19:33;3.28;;;1.10;;
55539;SDS011;41384;51.418;7.286;2023-05-19T14:21:58;4.13;;;1.55;;
55539;SDS011;41384;51.418;7.286;2023-05-19T14:24:24;3.03;;;1.33;;
55539;SDS011;41384;51.418;7.286;2023-05-19T14:26:49;3.38;;;1.20;;
55539;SDS011;41384;51.418;7.286;2023-05-19T14:29:14;2.78;;;1.10;;
55539;SDS011;41384;51.418;7.286;2023-05-19T14:31:40;28.23;;;2.53;;
55539;SDS011;41384;51.418;7.286;2023-05-19T14:34:05;3.67;;;1.20;;
55539;SDS011;41384;51.418;7.286;2023-05-19T14:36:30;3.55;;;1.33;;
55539;SDS011;41384;51.418;7.286;2023-05-19T14:38:57;2.22;;;1.10;;
55539;SDS011;41384;51.418;7.286;2023-05-19T14:41:22;4.32;;;1.20;;
55539;SDS011;41384;51.418;7.286;2023-05-19T14:43:47;2.42;;;1.10;;
55539;SDS011;41384;51.418;7.286;2023-05-19T14:46:12;5.45;;;1.23;;
55539;SDS011;41384;51.418;7.286;2023-05-19T14:48:38;3.95;;;1.30;;
55539;SDS011;41384;51.418;7.286;2023-05-19T14:51:03;2.15;;;1.10;;
55539;SDS011;41384;51.418;7.286;2023-05-19T14:53:28;1.73;;;1.00;;
55539;SDS011;41384;51.418;7.286;2023-05-19T14:55:54;23.83;;;2.53;;
55539;SDS011;41384;51.418;7.286;2023-05-19T14:58:19;3.35;;;1.58;;
55539;SDS011;41384;51.418;7.286;2023-05-19T15:00:44;2.78;;;1.00;;
55539;SDS011;41384;51.418;7.286;2023-05-19T15:03:11;4.03;;;1.20;;
55539;SDS011;41384;51.418;7.286;2023-05-19T15:05:36;2.67;;;1.10;;
55539;SDS011;41384;51.418;7.286;2023-05-19T15:08:04;14.50;;;2.03;;
55539;SDS011;41384;51.418;7.286;2023-05-19T15:10:29;1.92;;;1.13;;
55539;SDS011;41384;51.418;7.286;2023-05-19T15:12:54;4.45;;;1.20;;
55539;SDS011;41384;51.418;7.286;2023-05-19T15:15:21;5.07;;;1.35;;